Time;durP1;ratioP1;P1;durP2;ratioP2;P2;SDS_P1;SDS_P2;PMS_P1;PMS_P2;Temp;Humidity;BMP_temperature;BMP_pressure;BME280_temperature;BME280_humidity;BME280_pressure;Samples;Min_cycle;Max_cycle;Signal;HPM_P1;HPM_P2
2021/09/29 00:01:36;;;;;;;10.60;5.50;;;;;;;10.43;91.43;101241.55;115639;1193;71724;-79
2021/09/29 00:04:03;;;;;;;9.70;5.20;;;;;;;10.45;91.48;101237.26;115704;1194;72447;-80
2021/09/29 00:06:31;;;;;;;12.20;4.70;;;;;;;10.49;91.38;101236.16;115678;1193;61699;-79
2021/09/29 00:08:57;;;;;;;13.50;5.30;;;;;;;10.49;90.99;101232.77;115781;1192;60426;-80
2021/09/29 00:11:24;;;;;;;9.40;5.50;;;;;;;10.51;91.19;101229.58;115628;1193;75848;-79
2021/09/29 00:13:51;;;;;;;10.20;5.10;;;;;;;10.52;90.98;101223.05;115563;1176;58923;-79
2021/09/29 00:16:17;;;;;;;7.80;5.30;;;;;;;10.53;91.21;101222.23;115699;1193;59120;-80
2021/09/29 00:18:44;;;;;;;8.50;5.10;;;;;;;10.55;91.29;101220.97;115714;1193;59621;-80
2021/09/29 00:21:10;;;;;;;8.00;5.00;;;;;;;10.56;91.17;101225.69;115623;1193;58961;-79
2021/09/29 00:23:48;;;;;;;12.30;5.60;;;;;;;10.56;91.03;101228.17;115650;1193;59746;-79
2021/09/29 00:26:16;;;;;;;11.50;5.70;;;;;;;10.55;91.02;101226.29;115595;1193;70044;-80
2021/09/29 00:28:42;;;;;;;7.50;4.40;;;;;;;10.56;91.32;101220.89;115507;1193;72812;-80
2021/09/29 00:31:25;;;;;;;9.90;4.70;;;;;;;10.57;91.36;101220.08;115653;1193;59880;-79
2021/09/29 00:33:58;;;;;;;9.20;5.30;;;;;;;10.58;91.46;101213.89;115681;1193;60135;-79
2021/09/29 00:36:26;;;;;;;10.80;5.20;;;;;;;10.60;91.48;101218.11;115696;1193;75886;-80
2021/09/29 00:38:53;;;;;;;9.10;5.10;;;;;;;10.62;91.42;101218.67;115575;1194;71003;-80
2021/09/29 00:41:20;;;;;;;7.00;4.30;;;;;;;10.62;91.38;101218.14;115613;1194;71691;-80
2021/09/29 00:43:46;;;;;;;7.80;3.90;;;;;;;10.63;91.46;101218.21;115674;1195;59035;-80
2021/09/29 00:46:14;;;;;;;10.00;4.80;;;;;;;10.66;91.37;101220.58;115622;1195;60308;-79
2021/09/29 00:48:47;;;;;;;7.00;3.80;;;;;;;10.66;91.41;101224.48;115359;1194;73815;-80
2021/09/29 00:51:14;;;;;;;10.30;3.80;;;;;;;10.65;91.42;101223.71;115566;1195;72118;-80
2021/09/29 00:53:41;;;;;;;12.20;4.90;;;;;;;10.61;91.47;101222.85;115624;1194;72665;-79
2021/09/29 00:56:08;;;;;;;12.70;4.70;;;;;;;10.59;91.70;101219.83;115593;1187;62972;-79
2021/09/29 00:59:01;;;;;;;10.20;4.40;;;;;;;10.61;91.92;101214.50;115580;1194;60579;-79
2021/09/29 01:01:28;;;;;;;8.40;4.50;;;;;;;10.65;92.07;101210.94;115624;1194;74456;-79
2021/09/29 01:04:04;;;;;;;8.20;4.60;;;;;;;10.69;91.93;101208.90;115557;1195;70955;-79
2021/09/29 01:06:43;;;;;;;8.00;4.90;;;;;;;10.71;91.76;101207.12;115536;1195;72737;-79
2021/09/29 01:09:30;;;;;;;10.10;4.70;;;;;;;10.75;91.67;101202.80;115694;1194;62444;-79
2021/09/29 01:12:10;;;;;;;7.60;3.90;;;;;;;10.75;91.25;101201.85;115546;1195;60356;-80
2021/09/29 01:14:48;;;;;;;10.30;4.20;;;;;;;10.73;91.34;101203.41;115700;1195;75218;-80
2021/09/29 01:17:17;;;;;;;9.20;5.80;;;;;;;10.71;91.54;101197.92;115633;1195;71105;-79
2021/09/29 01:19:46;;;;;;;8.40;4.80;;;;;;;10.70;91.40;101196.14;115646;1195;71695;-79
2021/09/29 01:22:22;;;;;;;9.70;5.10;;;;;;;10.69;91.39;101193.38;115607;1194;63006;-79
2021/09/29 01:24:56;;;;;;;10.00;4.60;;;;;;;10.70;91.49;101191.09;115644;1195;60168;-80
2021/09/29 01:27:24;;;;;;;9.60;4.90;;;;;;;10.71;91.39;101182.02;115755;1194;75634;-80
2021/09/29 01:29:52;;;;;;;9.90;4.80;;;;;;;10.72;91.38;101182.80;115529;1195;72059;-80
2021/09/29 01:32:20;;;;;;;8.40;4.20;;;;;;;10.71;91.55;101174.34;115715;1194;73720;-79
2021/09/29 01:34:49;;;;;;;8.50;4.90;;;;;;;10.76;91.60;101177.07;115669;1194;63047;-80
2021/09/29 01:37:16;;;;;;;7.90;4.70;;;;;;;10.78;91.30;101176.84;115643;1193;60459;-80
2021/09/29 01:39:44;;;;;;;6.80;4.80;;;;;;;10.77;91.15;101174.45;115620;1193;74794;-80
2021/09/29 01:42:11;;;;;;;7.60;4.10;;;;;;;10.77;91.04;101173.43;115583;1195;70856;-80
2021/09/29 01:44:38;;;;;;;8.70;4.50;;;;;;;10.78;91.23;101170.44;115636;1195;71984;-80
2021/09/29 01:47:09;;;;;;;9.80;4.90;;;;;;;10.80;91.14;101164.20;115707;1194;62067;-80
2021/09/29 01:49:41;;;;;;;11.00;5.10;;;;;;;10.83;91.26;101158.14;115657;1195;61407;-80
2021/09/29 01:52:09;;;;;;;9.20;3.90;;;;;;;10.84;90.96;101154.02;115625;1194;75070;-80
2021/09/29 01:54:46;;;;;;;8.20;4.80;;;;;;;10.79;90.48;101152.30;115672;1194;71525;-80
2021/09/29 01:57:14;;;;;;;9.90;4.70;;;;;;;10.75;90.70;101143.58;115580;1194;73527;-80
2021/09/29 01:59:44;;;;;;;7.70;4.60;;;;;;;10.72;90.88;101140.15;115656;1194;61513;-80
2021/09/29 02:02:13;;;;;;;7.70;4.90;;;;;;;10.70;90.74;101139.65;115691;1195;61150;-80
2021/09/29 02:04:48;;;;;;;8.30;4.90;;;;;;;10.66;90.74;101138.88;115556;1194;74630;-80
2021/09/29 02:07:15;;;;;;;8.60;5.00;;;;;;;10.61;90.79;101135.60;115692;1194;71262;-80
2021/09/29 02:09:41;;;;;;;11.30;4.70;;;;;;;10.58;91.04;101130.83;115621;1194;72861;-80
2021/09/29 02:12:08;;;;;;;11.20;5.10;;;;;;;10.57;91.23;101130.21;115694;1194;58696;-80
2021/09/29 02:14:36;;;;;;;9.60;5.10;;;;;;;10.55;91.30;101126.77;115633;1194;60270;-80
2021/09/29 02:17:02;;;;;;;10.20;4.30;;;;;;;10.52;91.33;101122.80;115680;1194;75589;-80
2021/09/29 02:19:29;;;;;;;10.70;5.30;;;;;;;10.48;91.22;101118.43;115615;1194;72091;-80
2021/09/29 02:21:56;;;;;;;7.30;4.80;;;;;;;10.45;91.40;101119.27;115734;1195;73775;-80
2021/09/29 02:24:23;;;;;;;10.80;4.90;;;;;;;10.43;91.58;101116.14;115663;1194;61637;-80
2021/09/29 02:26:49;;;;;;;9.80;5.30;;;;;;;10.43;91.90;101109.95;115591;1195;61280;-80
2021/09/29 02:29:16;;;;;;;9.20;4.60;;;;;;;10.44;92.03;101106.73;115660;1194;75721;-80
2021/09/29 02:31:44;;;;;;;7.50;4.20;;;;;;;10.46;92.17;101107.35;115739;1195;70992;-80
2021/09/29 02:34:11;;;;;;;8.00;4.50;;;;;;;10.49;92.26;101096.07;115683;1195;73915;-80
2021/09/29 02:36:46;;;;;;;8.00;4.80;;;;;;;10.50;91.97;101091.26;115541;1195;61237;-80
2021/09/29 02:39:12;;;;;;;10.10;4.90;;;;;;;10.51;92.22;101089.11;115609;1195;60290;-80
2021/09/29 02:41:39;;;;;;;10.90;4.90;;;;;;;10.54;92.15;101089.36;115616;1195;59269;-80
2021/09/29 02:44:08;;;;;;;8.10;4.80;;;;;;;10.56;92.20;101087.31;115659;1195;72865;-80
2021/09/29 02:46:41;;;;;;;8.80;4.60;;;;;;;10.59;92.11;101085.15;115628;1194;72389;-80
2021/09/29 02:49:20;;;;;;;;;;;;;;;10.58;91.69;101081.61;115606;1195;60398;-80
2021/09/29 02:51:47;;;;;;;7.20;4.70;;;;;;;10.54;91.63;101081.24;115502;1194;58817;-80
2021/09/29 02:54:15;;;;;;;11.10;4.90;;;;;;;10.51;91.58;101075.73;115736;1194;75095;-80
2021/09/29 02:56:55;;;;;;;10.10;4.60;;;;;;;10.49;91.62;101080.67;115583;1195;70144;-80
2021/09/29 02:59:28;;;;;;;5.90;4.50;;;;;;;10.46;91.41;101077.65;115718;1194;58779;-80
2021/09/29 03:01:54;;;;;;;7.50;4.40;;;;;;;10.44;91.63;101074.40;115630;1193;61950;-80
2021/09/29 03:04:21;;;;;;;8.90;4.90;;;;;;;10.42;91.75;101070.30;115799;1194;61293;-80
2021/09/29 03:06:47;;;;;;;6.10;4.00;;;;;;;10.41;91.69;101074.67;115661;1194;58785;-80
2021/09/29 03:09:15;;;;;;;8.70;4.20;;;;;;;10.36;91.53;101067.44;115626;1195;70844;-80
2021/09/29 03:11:42;;;;;;;5.60;3.90;;;;;;;10.33;91.84;101067.00;115472;1195;72945;-80
2021/09/29 03:14:08;;;;;;;8.60;4.40;;;;;;;10.33;92.32;101070.92;115545;1195;63054;-80
2021/09/29 03:16:35;;;;;;;7.90;4.20;;;;;;;10.33;92.24;101068.92;115641;1194;61417;-80
2021/09/29 03:19:02;;;;;;;8.10;4.80;;;;;;;10.31;91.83;101072.42;115706;1195;75652;-80
2021/09/29 03:21:30;;;;;;;10.90;4.40;;;;;;;10.28;91.99;101073.55;115694;1194;72287;-80
2021/09/29 03:23:56;;;;;;;5.50;4.00;;;;;;;10.27;92.23;101077.61;115655;1194;72603;-80
2021/09/29 03:26:23;;;;;;;7.30;3.90;;;;;;;10.29;92.68;101080.36;115629;1195;63009;-80
2021/09/29 03:28:56;;;;;;;6.50;3.80;;;;;;;10.31;92.50;101076.41;115496;1195;61384;-80
2021/09/29 03:34:11;;;;;;;10.10;4.60;;;;;;;10.35;92.16;101070.52;115711;1189;66384;-80
2021/09/29 03:36:38;;;;;;;5.00;3.90;;;;;;;10.36;92.16;101073.36;115811;1192;73533;-80
2021/09/29 03:39:13;;;;;;;6.30;3.30;;;;;;;10.35;91.81;101073.02;115877;1192;59097;-80
2021/09/29 03:41:40;;;;;;;8.50;3.80;;;;;;;10.31;91.64;101064.54;115702;1193;60817;-80
2021/09/29 03:44:07;;;;;;;8.60;3.90;;;;;;;10.31;91.81;101058.13;115718;1193;74586;-80
2021/09/29 03:46:47;;;;;;;7.30;4.10;;;;;;;10.31;91.96;101062.46;115720;1193;72091;-80
2021/09/29 03:49:14;;;;;;;8.20;4.00;;;;;;;10.34;92.59;101061.04;115742;1193;72770;-80
2021/09/29 03:51:40;;;;;;;9.00;4.30;;;;;;;10.36;92.24;101055.16;115790;1192;60690;-80
2021/09/29 03:54:07;;;;;;;5.50;4.00;;;;;;;10.39;92.28;101055.63;115744;1187;58487;-80
2021/09/29 03:56:33;;;;;;;6.80;4.00;;;;;;;10.42;92.08;101052.31;115739;1193;74794;-80
2021/09/29 03:59:31;;;;;;;8.30;4.10;;;;;;;10.42;91.79;101049.48;115790;1193;59062;-80
2021/09/29 04:02:17;;;;;;;12.70;3.90;;;;;;;10.42;92.22;101037.77;115733;1193;72295;-80
2021/09/29 04:04:44;;;;;;;5.70;3.70;;;;;;;10.44;92.20;101038.77;115865;1192;61991;-80
2021/09/29 04:07:47;;;;;;;7.10;3.90;;;;;;;10.43;91.80;101031.66;115762;1192;60429;-80
2021/09/29 04:10:26;;;;;;;8.00;4.60;;;;;;;10.39;91.44;101029.41;115762;1193;74554;-80
2021/09/29 04:13:02;;;;;;;6.00;3.90;;;;;;;10.35;91.58;101026.98;115707;1193;71213;-80
2021/09/29 04:15:30;;;;;;;8.00;4.10;;;;;;;10.32;91.56;101028.27;115745;1192;73826;-80
2021/09/29 04:17:56;;;;;;;9.00;3.80;;;;;;;10.31;91.86;101027.16;115906;1192;61903;-80
2021/09/29 04:20:23;;;;;;;7.10;4.20;;;;;;;10.32;92.17;101024.35;115790;1193;58231;-80
2021/09/29 04:22:50;;;;;;;5.10;3.70;;;;;;;10.33;91.97;101026.02;115760;1192;59997;-79
2021/09/29 04:25:16;;;;;;;7.40;3.90;;;;;;;10.33;92.14;101021.77;115799;1193;71630;-80
2021/09/29 04:27:43;;;;;;;6.20;4.30;;;;;;;10.35;92.26;101019.48;115690;1193;73622;-80
2021/09/29 04:30:10;;;;;;;7.80;4.10;;;;;;;10.34;92.00;101015.27;115788;1192;59403;-80
2021/09/29 04:32:36;;;;;;;6.40;3.80;;;;;;;10.35;92.18;101015.52;115714;1193;61465;-79
2021/09/29 04:35:03;;;;;;;8.90;4.10;;;;;;;10.37;92.38;101014.10;115759;1193;75740;-82
2021/09/29 04:37:30;;;;;;;8.00;4.20;;;;;;;10.39;92.36;101014.20;115778;1193;71340;-81
2021/09/29 04:39:56;;;;;;;8.20;4.10;;;;;;;10.42;92.22;101014.06;115674;1193;59091;-81
2021/09/29 04:42:23;;;;;;;13.70;4.10;;;;;;;10.43;91.90;101011.67;115719;1193;58688;-80
2021/09/29 04:44:49;;;;;;;11.20;4.00;;;;;;;10.41;91.67;101012.94;115730;1193;61510;-82
2021/09/29 04:47:16;;;;;;;6.00;3.90;;;;;;;10.39;91.75;101009.95;115732;1193;59264;-82
2021/09/29 04:49:43;;;;;;;6.40;4.40;;;;;;;10.38;91.62;101014.46;115716;1195;71502;-82
2021/09/29 04:52:09;;;;;;;10.70;4.50;;;;;;;10.35;91.56;101011.26;115712;1194;72837;-81
2021/09/29 04:54:36;;;;;;;8.20;4.10;;;;;;;10.34;91.62;101011.41;115742;1194;62895;-82
2021/09/29 04:57:03;;;;;;;10.40;4.20;;;;;;;10.32;91.58;101014.80;115763;1193;61255;-80
2021/09/29 04:59:30;;;;;;;6.80;3.30;;;;;;;10.29;91.49;101020.45;115668;1195;74566;-81
2021/09/29 05:01:57;;;;;;;7.30;3.90;;;;;;;10.23;91.60;101020.48;115648;1195;72466;-80
2021/09/29 05:04:25;;;;;;;4.90;3.30;;;;;;;10.17;91.67;101018.60;115748;1193;72311;-81
2021/09/29 05:06:53;;;;;;;8.40;3.60;;;;;;;10.15;92.03;101015.90;115705;1195;62902;-81
2021/09/29 05:09:20;;;;;;;7.50;4.00;;;;;;;10.13;92.38;101013.45;115616;1194;61512;-80
2021/09/29 05:11:50;;;;;;;7.40;3.50;;;;;;;10.11;92.28;101009.90;115758;1195;75053;-81
2021/09/29 05:14:16;;;;;;;6.50;4.20;;;;;;;10.09;92.29;101009.44;115689;1193;70576;-81
2021/09/29 05:16:44;;;;;;;7.10;3.90;;;;;;;10.05;92.14;101009.74;115715;1193;73692;-82
2021/09/29 05:19:11;;;;;;;8.20;4.20;;;;;;;10.00;92.20;101010.63;115742;1194;61702;-79
2021/09/29 05:22:02;;;;;;;6.40;3.60;;;;;;;9.94;92.19;101009.94;115728;1193;58853;-82
2021/09/29 05:24:33;;;;;;;7.30;4.20;;;;;;;9.90;92.56;101006.36;115684;1194;76088;-80
2021/09/29 05:27:00;;;;;;;7.50;3.00;;;;;;;9.86;92.65;101010.17;115674;1192;71582;-80
2021/09/29 05:29:27;;;;;;;7.20;3.90;;;;;;;9.82;92.93;101009.00;115722;1194;58841;-80
2021/09/29 05:31:53;;;;;;;6.30;3.60;;;;;;;9.78;93.17;101006.11;115635;1193;58981;-81
2021/09/29 05:34:20;;;;;;;6.30;3.50;;;;;;;9.76;93.32;101001.20;115711;1193;59408;-82
2021/09/29 05:36:47;;;;;;;7.90;3.70;;;;;;;9.75;93.69;100997.82;115685;1195;75802;-82
2021/09/29 05:39:15;;;;;;;7.80;4.40;;;;;;;9.74;93.88;100993.71;115727;1193;71048;-81
2021/09/29 05:41:41;;;;;;;6.70;4.40;;;;;;;9.74;94.24;100991.23;115688;1193;72632;-82
2021/09/29 05:44:08;;;;;;;7.10;2.90;;;;;;;9.77;94.77;100987.23;115723;1194;59039;-81
2021/09/29 05:46:45;;;;;;;8.10;3.80;;;;;;;9.83;95.42;100989.12;115710;1194;58190;-82
2021/09/29 05:49:11;;;;;;;5.80;4.10;;;;;;;9.89;95.00;100989.34;115720;1194;74641;-81
2021/09/29 05:51:47;;;;;;;4.20;3.10;;;;;;;9.93;94.96;100989.54;115670;1195;58905;-81
2021/09/29 05:54:14;;;;;;;10.20;4.30;;;;;;;10.03;95.21;100988.20;115741;1193;72380;-82
2021/09/29 05:56:40;;;;;;;4.70;3.80;;;;;;;10.09;94.91;100982.40;115652;1187;61204;-82
2021/09/29 05:59:07;;;;;;;5.90;3.70;;;;;;;10.15;94.64;100978.95;115721;1193;59025;-81
2021/09/29 06:01:33;;;;;;;4.30;3.20;;;;;;;10.22;94.52;100981.41;115754;1193;58977;-81
2021/09/29 06:04:00;;;;;;;8.10;3.70;;;;;;;10.29;94.43;100981.86;115782;1193;70926;-81
2021/09/29 06:06:27;;;;;;;8.40;4.90;;;;;;;10.36;94.21;100976.47;115725;1194;73505;-82
2021/09/29 06:08:53;;;;;;;5.90;3.30;;;;;;;10.42;93.95;100974.16;115677;1195;62090;-81
2021/09/29 06:11:20;;;;;;;4.80;3.40;;;;;;;10.48;93.81;100971.34;115699;1195;58608;-81
2021/09/29 06:13:47;;;;;;;5.90;4.10;;;;;;;10.54;93.71;100967.52;115736;1193;58657;-79
2021/09/29 06:16:14;;;;;;;6.30;3.70;;;;;;;10.61;93.51;100968.20;115776;1193;71119;-80
2021/09/29 06:18:41;;;;;;;5.20;3.80;;;;;;;10.65;93.32;100960.13;115687;1193;73821;-82
2021/09/29 06:21:08;;;;;;;9.20;3.70;;;;;;;10.69;93.37;100955.61;115550;1193;62059;-82
2021/09/29 06:23:35;;;;;;;4.10;2.20;;;;;;;10.74;93.32;100957.03;115696;1193;58832;-82
2021/09/29 06:26:02;;;;;;;6.70;4.10;;;;;;;10.76;93.18;100954.51;115731;1194;74760;-82
2021/09/29 06:28:37;;;;;;;5.60;3.50;;;;;;;10.78;93.38;100950.67;115749;1193;72541;-82
2021/09/29 06:31:06;;;;;;;5.20;3.90;;;;;;;10.85;93.28;100957.04;115708;1193;72809;-81
2021/09/29 06:33:33;;;;;;;10.80;4.30;;;;;;;10.90;92.94;100952.44;115734;1193;62035;-80
2021/09/29 06:36:00;;;;;;;9.30;3.70;;;;;;;10.94;93.07;100951.22;115754;1193;61285;-81
2021/09/29 06:38:27;;;;;;;6.70;4.30;;;;;;;10.99;92.83;100949.23;115697;1193;74673;-80
2021/09/29 06:40:55;;;;;;;5.20;3.00;;;;;;;11.05;92.87;100946.52;115596;1195;71154;-82
2021/09/29 06:43:22;;;;;;;6.00;2.10;;;;;;;11.09;92.80;100941.28;115667;1194;59326;-80
2021/09/29 06:45:49;;;;;;;4.10;2.50;;;;;;;11.15;92.94;100947.34;115696;1194;61340;-80
2021/09/29 06:48:16;;;;;;;8.90;3.80;;;;;;;11.19;92.71;100951.27;115632;1195;60010;-81
2021/09/29 06:50:43;;;;;;;4.50;3.20;;;;;;;11.26;92.68;100938.25;115708;1193;74402;-81
2021/09/29 06:53:19;;;;;;;10.40;4.30;;;;;;;11.33;92.91;100927.96;115681;1194;73567;-80
2021/09/29 06:55:47;;;;;;;4.60;3.10;;;;;;;11.44;92.87;100923.28;115767;1193;73588;-79
2021/09/29 06:58:14;;;;;;;6.00;3.60;;;;;;;11.55;92.52;100911.48;115712;1194;61928;-80
2021/09/29 07:00:41;;;;;;;5.00;3.40;;;;;;;11.65;92.51;100919.34;115754;1195;60282;-80
2021/09/29 07:03:08;;;;;;;4.80;2.50;;;;;;;11.74;91.99;100924.46;115722;1195;74661;-82
2021/09/29 07:05:35;;;;;;;7.60;3.30;;;;;;;11.80;91.51;100929.93;115771;1193;71881;-80
2021/09/29 07:08:02;;;;;;;8.80;3.40;;;;;;;11.86;91.19;100934.60;115697;1195;71581;-81
2021/09/29 07:10:33;;;;;;;8.30;3.90;;;;;;;11.95;91.66;100932.25;115727;1194;61931;-80
2021/09/29 07:13:00;;;;;;;6.00;3.00;;;;;;;12.04;91.27;100936.83;115700;1193;60417;-81
2021/09/29 07:15:27;;;;;;;6.40;3.40;;;;;;;12.13;90.95;100931.70;115738;1194;58724;-81
2021/09/29 07:18:00;;;;;;;7.50;3.70;;;;;;;12.21;90.71;100929.17;115717;1194;58848;-81
2021/09/29 07:20:27;;;;;;;8.30;4.10;;;;;;;12.27;90.59;100928.82;115721;1195;72220;-82
2021/09/29 07:22:57;;;;;;;9.00;4.10;;;;;;;12.33;90.54;100930.67;115700;1195;62693;-82
2021/09/29 07:25:24;;;;;;;4.60;3.00;;;;;;;12.39;90.07;100929.50;115798;1193;60216;-82
2021/09/29 07:27:50;;;;;;;4.80;3.40;;;;;;;12.47;90.32;100928.67;115749;1193;75752;-81
2021/09/29 07:30:17;;;;;;;4.90;3.10;;;;;;;12.53;90.34;100927.41;115750;1194;58820;-82
2021/09/29 07:32:45;;;;;;;9.20;4.70;;;;;;;12.59;90.11;100920.13;115784;1194;58913;-79
2021/09/29 07:35:16;;;;;;;5.40;2.90;;;;;;;12.69;90.07;100912.54;115742;1193;61406;-82
2021/09/29 07:37:43;;;;;;;4.80;2.60;;;;;;;12.78;89.41;100902.56;115760;1193;61012;-81
2021/09/29 07:40:11;;;;;;;6.90;3.70;;;;;;;12.88;88.74;100895.74;115734;1193;75675;-80
2021/09/29 07:42:38;;;;;;;5.90;3.50;;;;;;;12.95;88.42;100895.34;115677;1195;70977;-82
2021/09/29 07:45:07;;;;;;;8.40;3.10;;;;;;;13.05;88.32;100892.77;115732;1194;73335;-80
2021/09/29 07:47:34;;;;;;;9.80;4.80;;;;;;;13.15;88.22;100897.77;115589;1193;62333;-81
2021/09/29 07:50:01;;;;;;;13.60;3.90;;;;;;;13.29;88.16;100896.23;115647;1195;60295;-81
2021/09/29 07:52:27;;;;;;;9.70;4.30;;;;;;;13.48;88.08;100895.04;115697;1195;75802;-80
2021/09/29 07:54:54;;;;;;;5.70;3.30;;;;;;;13.72;87.78;100883.34;115788;1193;70940;-80
2021/09/29 07:57:39;;;;;;;10.70;6.70;;;;;;;14.04;86.97;100878.13;115730;1193;72423;-82
2021/09/29 08:00:07;;;;;;;5.60;3.60;;;;;;;14.22;84.65;100880.27;115746;1193;61526;-80
2021/09/29 08:02:34;;;;;;;6.30;3.20;;;;;;;14.25;84.31;100878.95;115659;1195;61019;-79
2021/09/29 08:05:03;;;;;;;7.20;4.60;;;;;;;14.30;84.39;100873.23;115736;1194;76499;-79
2021/09/29 08:07:29;;;;;;;7.70;4.30;;;;;;;14.37;84.28;100871.83;115698;1193;69978;-81
2021/09/29 08:09:56;;;;;;;7.30;4.50;;;;;;;14.42;83.38;100872.73;115773;1193;58913;-82
2021/09/29 08:12:23;;;;;;;10.00;4.40;;;;;;;14.49;83.39;100878.02;115737;1193;60343;-82
2021/09/29 08:14:49;;;;;;;7.80;4.10;;;;;;;14.65;83.81;100882.46;115750;1193;60254;-79
2021/09/29 08:17:20;;;;;;;5.30;3.90;;;;;;;14.83;83.11;100881.65;115658;1194;75656;-80
2021/09/29 08:19:47;;;;;;;5.80;3.90;;;;;;;14.94;82.56;100879.07;115708;1194;71173;-80
2021/09/29 08:22:14;;;;;;;6.00;4.30;;;;;;;15.00;82.21;100883.16;115747;1194;73740;-80
2021/09/29 08:25:00;;;;;;;5.00;3.20;;;;;;;15.02;82.11;100883.50;115662;1195;60303;-81
2021/09/29 08:35:26;;;;;;;8.20;4.00;;;;;;;15.08;82.11;100882.04;115718;1193;72682;-82
2021/09/29 08:40:46;;;;;;;5.60;4.40;;;;;;;15.25;81.59;100877.79;115809;1193;59920;-80
2021/09/29 08:43:22;;;;;;;7.00;4.00;;;;;;;15.28;80.39;100876.48;115761;1194;75922;-83
2021/09/29 08:45:59;;;;;;;7.70;3.90;;;;;;;15.30;80.11;100874.23;115749;1194;71139;-79
2021/09/29 08:53:54;;;;;;;6.10;3.10;;;;;;;15.23;79.28;100874.78;115752;1193;61545;-82
2021/09/29 09:18:09;;;;;;;3.70;2.30;;;;;;;15.34;79.88;100854.95;115670;1193;61012;-78
2021/09/29 09:20:40;;;;;;;5.80;2.00;;;;;;;15.46;79.03;100853.44;115701;1194;59958;-79
2021/09/29 09:23:07;;;;;;;4.70;1.90;;;;;;;15.48;77.76;100850.41;115736;1195;78295;-82
2021/09/29 09:25:37;;;;;;;5.40;2.00;;;;;;;15.49;77.83;100848.52;115730;1193;71561;-81
2021/09/29 09:28:28;;;;;;;3.90;2.30;;;;;;;15.51;77.10;100848.33;115687;1194;72360;-82
2021/09/29 09:31:07;;;;;;;7.40;2.60;;;;;;;15.54;76.93;100845.31;115704;1194;63877;-81
2021/09/29 09:33:49;;;;;;;4.70;2.80;;;;;;;15.59;76.32;100841.05;115728;1194;60217;-79
2021/09/29 09:36:33;;;;;;;5.30;2.20;;;;;;;15.67;75.57;100836.60;115721;1193;74548;-81
2021/09/29 09:39:23;;;;;;;3.70;2.00;;;;;;;15.73;73.87;100829.75;115778;1193;72308;-82
2021/09/29 09:41:52;;;;;;;4.30;2.30;;;;;;;15.79;73.51;100826.84;115772;1193;72642;-79
2021/09/29 09:44:30;;;;;;;3.50;1.70;;;;;;;15.80;72.81;100823.46;115765;1193;61021;-82
2021/09/29 09:46:59;;;;;;;2.50;1.80;;;;;;;15.78;72.87;100818.04;115693;1194;59048;-80
2021/09/29 09:49:26;;;;;;;3.40;1.90;;;;;;;15.69;72.52;100819.33;115813;1193;75443;-82
2021/09/29 09:51:56;;;;;;;3.50;2.30;;;;;;;15.70;72.31;100818.80;115744;1194;72053;-82
2021/09/29 09:54:37;;;;;;;5.10;2.10;;;;;;;15.74;72.49;100809.07;115704;1194;72585;-82
2021/09/29 09:57:18;;;;;;;5.60;2.00;;;;;;;15.88;72.27;100807.58;115766;1194;60347;-82
2021/09/29 09:59:49;;;;;;;3.80;2.00;;;;;;;16.18;72.31;100802.96;115730;1194;59124;-78
2021/09/29 10:02:16;;;;;;;3.60;2.30;;;;;;;16.40;71.10;100799.24;115629;1195;75455;-79
2021/09/29 10:04:44;;;;;;;3.10;1.90;;;;;;;16.45;70.06;100797.27;115754;1194;69848;-82
2021/09/29 10:07:10;;;;;;;6.00;2.40;;;;;;;16.45;70.16;100791.09;115746;1193;73145;-79
2021/09/29 10:27:17;;;;;;;3.80;2.00;;;;;;;16.82;69.68;100782.53;115715;1193;60054;-81
2021/09/29 10:29:51;;;;;;;3.40;1.80;;;;;;;16.96;69.89;100771.54;115690;1194;75593;-80
2021/09/29 10:32:27;;;;;;;5.80;2.20;;;;;;;17.15;69.44;100773.48;115812;1194;71159;-82
2021/09/29 10:35:23;;;;;;;3.40;1.90;;;;;;;17.24;66.39;100772.10;115774;1193;72019;-80
2021/09/29 10:43:32;;;;;;;2.60;1.60;;;;;;;17.39;65.28;100753.38;115731;1193;74758;-78
2021/09/29 10:46:50;;;;;;;5.00;1.80;;;;;;;17.46;66.52;100738.63;115774;1193;72282;-80
2021/09/29 10:48:58;;;;;;;3.80;1.20;;;;;;;17.66;65.84;100739.86;115685;1193;73956;-81
2021/09/29 11:05:55;;;;;;;4.60;1.50;;;;;;;18.27;60.81;100733.05;115729;1194;60423;-81
2021/09/29 11:30:51;;;;;;;2.60;0.90;;;;;;;18.76;54.01;100723.77;115732;1194;72501;-82
2021/09/29 11:33:37;;;;;;;4.50;0.90;;;;;;;18.56;54.10;100720.73;115791;1193;60839;-81
2021/09/29 12:08:06;;;;;;;7.70;0.80;;;;;;;19.70;50.50;100677.36;115795;1194;74713;-80
2021/09/29 12:10:34;;;;;;;3.70;1.10;;;;;;;20.18;50.58;100675.19;115635;1194;70713;-83
2021/09/29 12:13:05;;;;;;;4.60;1.00;;;;;;;20.27;50.21;100671.92;115606;1186;129517;-74
2021/09/29 12:15:43;;;;;;;2.80;1.20;;;;;;;20.14;50.07;100673.79;115804;1192;61149;-75
2021/09/29 12:18:11;;;;;;;3.80;1.20;;;;;;;19.92;50.95;100667.77;115870;1192;60981;-75
2021/09/29 12:20:51;;;;;;;2.30;1.00;;;;;;;19.74;52.28;100665.88;115817;1192;72323;-75
2021/09/29 12:23:20;;;;;;;3.10;1.10;;;;;;;19.53;52.97;100657.98;115821;1192;71793;-75
2021/09/29 12:34:13;;;;;;;5.20;1.60;;;;;;;18.73;54.81;100658.48;115905;1192;74649;-75
2021/09/29 12:36:39;;;;;;;3.90;1.00;;;;;;;18.48;55.60;100657.61;115894;1192;71585;-75
2021/09/29 12:39:20;;;;;;;2.90;1.40;;;;;;;18.43;56.11;100658.61;115798;1193;72698;-75
2021/09/29 12:41:56;;;;;;;6.40;1.10;;;;;;;18.42;56.41;100662.17;115857;1193;61451;-74
2021/09/29 12:44:23;;;;;;;4.40;0.80;;;;;;;18.30;56.71;100655.23;115877;1193;59073;-75
2021/09/29 12:47:20;;;;;;;3.30;1.00;;;;;;;18.16;57.06;100650.77;115768;1193;76102;-75
2021/09/29 12:49:46;;;;;;;2.80;0.70;;;;;;;18.00;56.31;100651.89;115847;1193;71027;-74
2021/09/29 12:52:32;;;;;;;1.70;0.60;;;;;;;17.90;56.30;100648.17;115644;1193;58932;-74
2021/09/29 12:54:59;;;;;;;4.90;1.00;;;;;;;18.00;57.23;100646.57;115815;1193;60351;-74
2021/09/29 12:57:42;;;;;;;2.70;1.00;;;;;;;18.47;57.79;100643.67;115802;1193;59846;-74
2021/09/29 13:00:10;;;;;;;2.80;0.90;;;;;;;18.86;57.38;100640.55;115872;1193;74729;-74
2021/09/29 13:02:36;;;;;;;3.50;0.90;;;;;;;19.04;56.79;100640.02;115804;1193;71032;-74
2021/09/29 13:05:03;;;;;;;2.70;0.70;;;;;;;19.79;54.95;100637.08;115763;1193;73857;-74
2021/09/29 13:07:30;;;;;;;2.10;0.60;;;;;;;20.11;53.09;100644.34;115787;1193;59311;-74
2021/09/29 13:09:56;;;;;;;6.20;1.20;;;;;;;21.15;49.73;100628.23;115864;1193;59136;-74
2021/09/29 13:12:23;;;;;;;3.80;0.70;;;;;;;22.93;46.04;100621.69;115681;1193;75599;-75
2021/09/29 13:14:49;;;;;;;2.60;0.70;;;;;;;24.29;42.76;100628.19;115677;1193;59265;-74
2021/09/29 13:17:16;;;;;;;1.40;0.40;;;;;;;25.50;38.59;100625.03;115713;1193;58826;-75
2021/09/29 13:19:56;;;;;;;4.30;1.00;;;;;;;26.31;36.19;100622.89;115697;1193;60301;-75
2021/09/29 13:22:24;;;;;;;2.60;0.60;;;;;;;27.34;34.97;100621.00;115795;1193;60209;-75
2021/09/29 13:24:59;;;;;;;3.10;0.50;;;;;;;27.71;32.90;100621.08;115797;1193;75022;-75
2021/09/29 13:38:28;;;;;;;2.10;0.50;;;;;;;21.01;45.20;100643.97;115793;1193;73394;-74
2021/09/29 13:40:56;;;;;;;2.00;0.50;;;;;;;20.18;47.10;100651.32;115846;1193;70976;-74
2021/09/29 13:43:22;;;;;;;3.60;0.60;;;;;;;19.48;48.94;100658.67;115770;1193;74049;-74
2021/09/29 13:45:49;;;;;;;4.50;0.70;;;;;;;19.00;50.56;100656.95;115756;1193;58786;-74
2021/09/29 13:48:15;;;;;;;3.30;0.70;;;;;;;18.55;52.22;100671.75;115799;1193;60227;-75
2021/09/29 13:50:42;;;;;;;1.40;0.40;;;;;;;18.18;53.87;100681.70;115868;1193;58901;-74
2021/09/29 13:53:10;;;;;;;2.30;0.50;;;;;;;17.76;55.32;100688.96;115863;1193;58850;-75
2021/09/29 13:55:37;;;;;;;2.40;0.20;;;;;;;17.32;58.63;100743.68;115771;1193;73619;-74
2021/09/29 13:58:11;;;;;;;1.30;0.30;;;;;;;16.37;62.94;100763.70;115688;1193;61667;-72
2021/09/29 14:01:00;;;;;;;0.50;0.20;;;;;;;15.35;66.73;100764.17;115833;1193;60458;-72
2021/09/29 14:14:53;;;;;;;1.70;0.40;;;;;;;12.59;84.61;100787.86;115706;1193;61288;-71